ヘルシンキ/ヴァンター の空港の天気 - METARとTAF

ヘルシンキ・ヴァンター国際空港 ( EFHK / HEL ) - フィンランド ヴァンター
飛行場実況気象(Metar)
観測時間04/15 08:50 EEST (04/15 05:50 UTC)
風向・風速北東 4m/s
視程10km以上
天気現象
なし
気温3℃
湿度60%
気圧1031hPa
METAREFHK 150550Z 04007KT CAVOK 03/M04 Q1031 NOSIG
過去の天気等 Google飛行場航空写真 Wunderground天気予報

過去48時間のMETAR

飛行場予報(TAF)
発表時間: 4/15 08:30 EEST (4/15 05:30 UTC)
予報対象時間: 15日9時 EEST ~ 16日9時 EEST
風向・風速北東 5m/s
視程10km以上
なし
15日14時 EEST から 確率 30% で
風向・風速南南東 6m/s
TAF EFHK 150530Z 1506/1606 05009KT CAVOK
PROB30 1511/1517 15012KT